Time;durP1;ratioP1;P1;durP2;ratioP2;P2;SDS_P1;SDS_P2;PMS_P1;PMS_P2;Temp;Humidity;BMP_temperature;BMP_pressure;BME280_temperature;BME280_humidity;BME280_pressure;Samples;Min_cycle;Max_cycle;Signal;HPM_P1;HPM_P2
2023/03/08 00:00:12;;;;;;;8.43;3.03;;;4.60;99.90;;;;;;5090406;28;20400;-57
2023/03/08 00:02:37;;;;;;;9.10;3.03;;;4.60;99.90;;;;;;5091160;28;20417;-57
2023/03/08 00:05:04;;;;;;;10.15;3.67;;;5.50;99.90;;;;;;5090679;28;20459;-58
2023/03/08 00:07:30;;;;;;;12.80;3.78;;;4.70;99.90;;;;;;5091403;28;20382;-58
2023/03/08 00:09:56;;;;;;;8.45;3.33;;;4.60;99.90;;;;;;5090426;28;20914;-57
2023/03/08 00:12:22;;;;;;;8.27;3.47;;;6.40;99.90;;;;;;5090563;28;20485;-58
2023/03/08 00:14:48;;;;;;;9.75;3.53;;;4.70;99.90;;;;;;5090682;28;20386;-58
2023/03/08 00:17:15;;;;;;;10.23;3.90;;;4.80;99.90;;;;;;5090574;28;20904;-58
2023/03/08 00:19:42;;;;;;;9.73;3.70;;;4.90;99.90;;;;;;5090761;28;20402;-57
2023/03/08 00:22:08;;;;;;;10.18;3.30;;;5.70;99.90;;;;;;5089856;28;20409;-58
2023/03/08 00:24:33;;;;;;;12.18;4.30;;;4.90;99.90;;;;;;5090532;28;20394;-58
2023/03/08 00:26:59;;;;;;;10.10;3.17;;;4.80;99.90;;;;;;5089845;28;20451;-57
2023/03/08 00:29:25;;;;;;;10.65;3.50;;;4.70;99.90;;;;;;5090096;28;20414;-57
2023/03/08 00:31:50;;;;;;;10.13;3.50;;;4.70;99.90;;;;;;5090245;28;20390;-57
2023/03/08 00:34:16;;;;;;;9.70;2.83;;;5.00;99.90;;;;;;5090012;28;20397;-57
2023/03/08 00:36:42;;;;;;;10.50;3.20;;;4.40;99.90;;;;;;5090299;28;20798;-57
2023/03/08 00:39:08;;;;;;;11.38;3.25;;;4.40;99.90;;;;;;5089887;28;20937;-57
2023/03/08 00:41:34;;;;;;;9.68;3.60;;;4.40;99.90;;;;;;5090315;28;20394;-57
2023/03/08 00:43:59;;;;;;;10.68;3.53;;;4.30;99.90;;;;;;5089698;28;20378;-58
2023/03/08 00:46:25;;;;;;;9.70;3.93;;;4.70;99.90;;;;;;5090592;28;20385;-58
2023/03/08 00:48:51;;;;;;;9.25;3.63;;;5.40;99.90;;;;;;5089808;28;20409;-58
2023/03/08 00:51:19;;;;;;;9.90;3.70;;;4.20;99.90;;;;;;5090092;28;20913;-57
2023/03/08 00:53:45;;;;;;;11.95;4.05;;;4.20;99.90;;;;;;5089345;28;20405;-57
2023/03/08 00:56:11;;;;;;;13.02;4.22;;;4.20;99.90;;;;;;5089441;28;20401;-58
2023/03/08 00:58:38;;;;;;;9.82;4.15;;;4.30;99.90;;;;;;5070937;28;20458;-57
2023/03/08 01:01:04;;;;;;;14.23;5.00;;;4.50;99.90;;;;;;5065337;28;20473;-57
2023/03/08 01:03:30;;;;;;;12.00;4.60;;;4.40;99.90;;;;;;5089734;28;20850;-58
2023/03/08 01:05:57;;;;;;;12.52;4.57;;;4.60;99.90;;;;;;5088905;28;20481;-57
2023/03/08 01:08:25;;;;;;;11.52;4.40;;;4.60;99.90;;;;;;5089446;28;20409;-58
2023/03/08 01:10:56;;;;;;;15.60;4.25;;;6.30;99.90;;;;;;5089630;28;20394;-58
2023/03/08 01:13:22;;;;;;;15.68;4.45;;;5.50;99.90;;;;;;5089922;28;20398;-58
2023/03/08 01:15:48;;;;;;;11.32;3.95;;;4.40;99.90;;;;;;5089029;28;20727;-58
2023/03/08 01:18:14;;;;;;;10.95;4.22;;;5.20;99.90;;;;;;5088867;28;20949;-58
2023/03/08 01:20:40;;;;;;;10.85;4.13;;;4.20;99.90;;;;;;5089611;28;20401;-58
2023/03/08 01:23:05;;;;;;;10.80;4.20;;;4.10;99.90;;;;;;5088546;28;20874;-58
2023/03/08 01:25:31;;;;;;;9.67;3.80;;;4.10;99.90;;;;;;5089680;28;20476;-58
2023/03/08 01:27:56;;;;;;;11.23;4.55;;;5.10;99.90;;;;;;5088664;28;20560;-57
2023/03/08 01:30:22;;;;;;;10.67;4.43;;;5.40;99.90;;;;;;5089028;28;20418;-56
2023/03/08 01:32:48;;;;;;;10.50;4.23;;;3.80;99.90;;;;;;5089504;28;20419;-57
2023/03/08 01:35:14;;;;;;;13.95;3.83;;;3.80;99.90;;;;;;5078538;28;20403;-57
2023/03/08 01:37:39;;;;;;;15.63;5.28;;;3.80;99.90;;;;;;5085204;28;20488;-57
2023/03/08 01:40:06;;;;;;;15.63;5.27;;;3.80;99.90;;;;;;5088906;28;20401;-57
2023/03/08 01:42:32;;;;;;;13.77;5.68;;;3.80;99.90;;;;;;5089375;28;20950;-57
2023/03/08 01:45:00;;;;;;;14.75;5.72;;;4.80;99.90;;;;;;5088274;28;20398;-57
2023/03/08 01:47:28;;;;;;;13.00;4.82;;;3.60;99.90;;;;;;5088810;28;20418;-57
2023/03/08 01:50:04;;;;;;;10.73;4.80;;;3.60;99.90;;;;;;5088605;28;20482;-57
2023/03/08 01:52:34;;;;;;;13.40;4.10;;;3.60;99.90;;;;;;5089466;28;20389;-58
2023/03/08 01:55:06;;;;;;;15.00;6.03;;;3.50;99.90;;;;;;5089170;28;20385;-57
2023/03/08 01:57:36;;;;;;;15.05;6.35;;;3.50;99.90;;;;;;5089784;28;20907;-57
2023/03/08 02:00:12;;;;;;;14.55;5.40;;;3.50;99.90;;;;;;5088363;28;20394;-57
2023/03/08 02:02:46;;;;;;;16.20;5.40;;;3.60;99.90;;;;;;5089074;28;20397;-58
2023/03/08 02:05:13;;;;;;;12.43;5.50;;;3.50;99.90;;;;;;5089960;28;20389;-57
2023/03/08 02:07:39;;;;;;;13.68;6.30;;;4.00;99.90;;;;;;5093081;28;20844;-57
2023/03/08 02:10:05;;;;;;;18.15;5.68;;;3.50;99.90;;;;;;5092351;28;20386;-57
2023/03/08 02:12:31;;;;;;;14.02;5.55;;;3.50;99.90;;;;;;5093148;28;20504;-56
2023/03/08 02:14:57;;;;;;;15.30;5.80;;;5.10;99.90;;;;;;5092805;28;20435;-57
2023/03/08 02:17:24;;;;;;;15.47;5.70;;;5.20;99.90;;;;;;5091973;28;20411;-57
2023/03/08 02:20:21;;;;;;;15.05;6.13;;;3.50;99.90;;;;;;5093088;28;20401;-56
2023/03/08 02:22:50;;;;;;;16.92;6.22;;;3.60;99.90;;;;;;5086352;28;20976;-57
2023/03/08 02:25:25;;;;;;;17.55;6.90;;;3.60;99.90;;;;;;5092403;28;20393;-57
2023/03/08 02:27:51;;;;;;;15.85;5.35;;;3.60;99.90;;;;;;5093497;28;20903;-57
2023/03/08 02:30:23;;;;;;;15.57;6.00;;;4.10;99.90;;;;;;5092781;28;20409;-57
2023/03/08 02:32:49;;;;;;;17.02;6.45;;;3.70;99.90;;;;;;5092686;28;20467;-58
2023/03/08 02:35:15;;;;;;;14.30;5.85;;;3.70;99.90;;;;;;5092034;28;20421;-57
2023/03/08 02:37:40;;;;;;;14.38;5.78;;;3.80;99.90;;;;;;5093253;28;20397;-57
2023/03/08 02:40:07;;;;;;;18.10;6.23;;;3.80;99.90;;;;;;5091850;28;20760;-57
2023/03/08 02:42:32;;;;;;;16.05;6.78;;;3.80;99.90;;;;;;5092632;28;20490;-57
2023/03/08 02:44:58;;;;;;;16.55;6.30;;;3.80;99.90;;;;;;5091786;28;20743;-57
2023/03/08 02:47:24;;;;;;;13.40;6.10;;;5.50;99.90;;;;;;5092482;28;20400;-58
2023/03/08 02:49:49;;;;;;;15.18;5.20;;;4.50;99.90;;;;;;5093004;28;20414;-57
2023/03/08 02:52:15;;;;;;;14.67;6.53;;;3.90;99.90;;;;;;5092106;28;20386;-58
2023/03/08 02:54:40;;;;;;;20.90;6.20;;;3.90;99.90;;;;;;5092741;28;20719;-57
2023/03/08 02:57:06;;;;;;;15.60;5.80;;;5.10;99.90;;;;;;5091644;28;20398;-57
2023/03/08 02:59:32;;;;;;;13.30;5.60;;;3.90;99.90;;;;;;5092638;28;20392;-57
2023/03/08 03:01:58;;;;;;;14.38;6.18;;;3.90;99.90;;;;;;5091656;28;20433;-57
2023/03/08 03:04:27;;;;;;;15.32;5.70;;;4.40;99.90;;;;;;5092326;28;20820;-57
2023/03/08 03:06:53;;;;;;;15.25;5.18;;;4.00;99.90;;;;;;5090824;28;20413;-57
2023/03/08 03:09:18;;;;;;;12.27;5.22;;;3.80;99.90;;;;;;5091504;28;20410;-56
2023/03/08 03:11:44;;;;;;;18.30;6.37;;;3.90;99.90;;;;;;5092125;28;20386;-57
2023/03/08 03:14:10;;;;;;;14.93;5.97;;;4.00;99.90;;;;;;5091280;28;20394;-57
2023/03/08 03:16:36;;;;;;;15.45;6.05;;;4.20;99.90;;;;;;5091215;28;20447;-57
2023/03/08 03:19:02;;;;;;;15.25;5.85;;;4.10;99.90;;;;;;5091517;28;20712;-57
2023/03/08 03:21:27;;;;;;;15.88;4.82;;;3.90;99.90;;;;;;5092251;28;20432;-57
2023/03/08 03:23:54;;;;;;;15.00;5.53;;;5.50;99.90;;;;;;5091802;28;20370;-57
2023/03/08 03:26:21;;;;;;;15.10;6.05;;;4.20;99.90;;;;;;5091902;28;20439;-57
2023/03/08 03:28:47;;;;;;;14.30;5.47;;;4.10;99.90;;;;;;5091601;28;20433;-57
2023/03/08 03:31:18;;;;;;;13.40;5.97;;;4.20;99.90;;;;;;5076282;28;21021;-57
2023/03/08 03:33:44;;;;;;;16.35;5.95;;;4.30;99.90;;;;;;5086291;28;20443;-57
2023/03/08 03:36:12;;;;;;;14.80;6.30;;;4.40;99.90;;;;;;5090987;28;20399;-57
2023/03/08 03:38:39;;;;;;;14.15;5.22;;;5.40;99.90;;;;;;5091757;28;20386;-57
2023/03/08 03:41:07;;;;;;;14.80;5.93;;;5.40;99.90;;;;;;5089324;28;20406;-57
2023/03/08 03:43:34;;;;;;;18.05;5.25;;;4.60;99.90;;;;;;5091304;28;20497;-57
2023/03/08 03:46:03;;;;;;;14.10;5.22;;;4.60;99.90;;;;;;5090565;28;20473;-57
2023/03/08 03:48:29;;;;;;;13.15;5.47;;;4.60;99.90;;;;;;5090940;28;20417;-57
2023/03/08 03:51:00;;;;;;;16.57;5.97;;;4.60;99.90;;;;;;5090620;28;20390;-58
2023/03/08 03:53:30;;;;;;;15.43;6.03;;;4.60;99.90;;;;;;5091455;28;20405;-57
2023/03/08 03:56:05;;;;;;;13.98;5.63;;;5.40;99.90;;;;;;5089060;28;20398;-58
2023/03/08 03:58:31;;;;;;;15.32;5.57;;;4.50;99.90;;;;;;5091165;28;20480;-57
2023/03/08 04:00:57;;;;;;;14.30;5.57;;;4.70;99.90;;;;;;5090316;28;20485;-58
2023/03/08 04:03:22;;;;;;;13.18;5.10;;;5.80;99.90;;;;;;5078435;28;20388;-58
2023/03/08 04:05:48;;;;;;;14.80;5.60;;;4.40;99.90;;;;;;5078875;28;20830;-58
2023/03/08 04:08:14;;;;;;;14.43;5.03;;;4.20;99.90;;;;;;5090258;28;21136;-58
2023/03/08 04:10:39;;;;;;;14.83;4.73;;;4.20;99.90;;;;;;5087840;28;20410;-58
2023/03/08 04:13:05;;;;;;;14.87;5.60;;;4.30;99.90;;;;;;5070233;28;20387;-58
2023/03/08 04:15:30;;;;;;;16.37;5.43;;;4.40;99.90;;;;;;5070792;28;20771;-57
2023/03/08 04:17:56;;;;;;;13.90;5.27;;;4.40;99.90;;;;;;5060483;28;20398;-57
2023/03/08 04:20:22;;;;;;;14.52;5.30;;;4.30;99.90;;;;;;5080960;28;20814;-58
2023/03/08 04:22:48;;;;;;;15.30;5.20;;;4.30;99.90;;;;;;5090843;28;20378;-57
2023/03/08 04:25:13;;;;;;;15.50;5.20;;;5.20;99.90;;;;;;5090091;28;21038;-57
2023/03/08 04:27:39;;;;;;;14.57;5.57;;;4.20;99.90;;;;;;5090988;28;20401;-58
2023/03/08 04:30:05;;;;;;;15.55;5.47;;;5.70;99.90;;;;;;5088949;28;20448;-58
2023/03/08 04:32:31;;;;;;;15.15;5.13;;;4.20;99.90;;;;;;5059525;28;20401;-57
2023/03/08 04:34:57;;;;;;;13.27;4.90;;;4.20;99.90;;;;;;5089434;28;20450;-57
2023/03/08 04:37:23;;;;;;;14.10;5.18;;;4.20;99.90;;;;;;5088802;28;20476;-57
2023/03/08 04:39:49;;;;;;;11.05;4.85;;;5.40;99.90;;;;;;5082067;28;20411;-57
2023/03/08 04:42:15;;;;;;;13.52;5.03;;;4.30;99.90;;;;;;5070480;28;20395;-58
2023/03/08 04:44:40;;;;;;;12.47;5.30;;;4.40;99.90;;;;;;5078637;28;20903;-57
2023/03/08 04:47:06;;;;;;;13.82;5.75;;;4.50;99.90;;;;;;5089488;28;20378;-58
2023/03/08 04:49:31;;;;;;;14.97;4.37;;;5.50;99.90;;;;;;5090160;28;20448;-58
2023/03/08 04:51:57;;;;;;;13.20;5.63;;;5.80;99.90;;;;;;5067377;28;21147;-58
2023/03/08 04:54:23;;;;;;;12.57;5.00;;;4.50;99.90;;;;;;5090107;28;20382;-57
2023/03/08 04:56:49;;;;;;;12.60;4.60;;;4.80;99.90;;;;;;5090063;28;20398;-57
2023/03/08 04:59:15;;;;;;;14.48;5.93;;;5.80;99.90;;;;;;5088992;28;21062;-57
2023/03/08 05:01:41;;;;;;;14.95;5.50;;;4.40;99.90;;;;;;5085625;28;20397;-58
2023/03/08 05:04:10;;;;;;;11.85;4.47;;;4.40;99.90;;;;;;5088217;28;20744;-57
2023/03/08 05:06:36;;;;;;;11.80;4.72;;;4.30;99.90;;;;;;5089467;28;20443;-57
2023/03/08 05:09:01;;;;;;;12.93;4.68;;;5.80;99.90;;;;;;5077528;28;20413;-58
2023/03/08 05:11:28;;;;;;;13.45;5.10;;;4.50;99.90;;;;;;5090032;28;20404;-57
2023/03/08 05:13:55;;;;;;;13.02;4.90;;;4.50;99.90;;;;;;5089580;28;20389;-56
2023/03/08 05:16:22;;;;;;;12.90;4.30;;;3.30;99.90;;;;;;5089461;28;20390;-58
2023/03/08 05:18:48;;;;;;;15.20;5.00;;;5.90;99.90;;;;;;5090000;28;20480;-57
2023/03/08 05:21:16;;;;;;;14.73;5.03;;;4.50;99.90;;;;;;5088715;28;20477;-57
2023/03/08 05:23:42;;;;;;;13.35;4.80;;;4.60;99.90;;;;;;5089742;28;20708;-58
2023/03/08 05:26:10;;;;;;;13.97;5.07;;;4.60;99.90;;;;;;5088624;28;20401;-58
2023/03/08 05:28:37;;;;;;;12.52;5.15;;;5.00;99.90;;;;;;5064925;28;20457;-57
2023/03/08 05:31:06;;;;;;;13.52;4.97;;;4.70;99.90;;;;;;5049597;28;20393;-57
2023/03/08 05:33:32;;;;;;;12.75;5.03;;;4.80;99.90;;;;;;5054307;28;20406;-57
2023/03/08 05:35:58;;;;;;;16.05;5.90;;;4.80;99.90;;;;;;5058123;28;20411;-57
2023/03/08 05:38:24;;;;;;;13.23;4.82;;;6.20;99.90;;;;;;5086970;28;20393;-57
2023/03/08 05:40:51;;;;;;;11.80;5.23;;;5.00;99.90;;;;;;5084513;28;20863;-57
2023/03/08 05:43:17;;;;;;;15.48;4.82;;;5.60;99.90;;;;;;5079682;28;20869;-58
2023/03/08 05:45:52;;;;;;;14.60;5.50;;;5.00;99.90;;;;;;5074188;28;20402;-58
2023/03/08 05:48:18;;;;;;;12.50;5.07;;;5.10;99.90;;;;;;5068105;28;20410;-59
2023/03/08 05:50:43;;;;;;;16.67;6.18;;;5.30;99.90;;;;;;5061363;28;20403;-59
2023/03/08 05:53:09;;;;;;;14.33;5.50;;;5.20;99.90;;;;;;5060261;28;20756;-58
2023/03/08 05:55:34;;;;;;;17.10;5.43;;;6.50;99.90;;;;;;5066885;28;20401;-59
2023/03/08 05:58:00;;;;;;;13.80;5.20;;;5.30;99.90;;;;;;5048060;28;20401;-59
2023/03/08 06:00:26;;;;;;;14.40;5.60;;;5.50;99.90;;;;;;5068594;28;20471;-58
2023/03/08 06:02:51;;;;;;;14.03;5.33;;;5.50;99.90;;;;;;5057936;28;20417;-60
2023/03/08 06:05:17;;;;;;;13.45;4.47;;;6.40;99.90;;;;;;5063296;28;20435;-59
2023/03/08 06:07:43;;;;;;;13.97;4.93;;;5.70;99.90;;;;;;5048981;28;20396;-59
2023/03/08 06:10:09;;;;;;;16.85;6.15;;;7.10;99.90;;;;;;5075290;28;20440;-58
2023/03/08 06:12:35;;;;;;;13.15;5.18;;;5.70;99.90;;;;;;5065502;28;20392;-58
2023/03/08 06:15:00;;;;;;;13.52;5.45;;;5.70;99.90;;;;;;5071654;28;20402;-59
2023/03/08 06:17:26;;;;;;;14.00;5.73;;;7.00;99.90;;;;;;5073448;28;20391;-58
2023/03/08 06:19:51;;;;;;;14.82;5.15;;;5.70;99.90;;;;;;5069359;28;20406;-58
2023/03/08 06:22:17;;;;;;;12.50;5.50;;;6.70;99.90;;;;;;5057443;28;20484;-58
2023/03/08 06:24:43;;;;;;;15.52;5.78;;;5.70;99.90;;;;;;5083506;28;20421;-59
2023/03/08 06:27:08;;;;;;;13.77;5.67;;;7.30;99.90;;;;;;5085873;28;20398;-58
2023/03/08 06:29:34;;;;;;;16.92;5.97;;;5.70;99.90;;;;;;5067457;28;20921;-58
2023/03/08 06:31:59;;;;;;;14.27;5.30;;;5.70;99.90;;;;;;5061763;28;20402;-58
2023/03/08 06:34:25;;;;;;;13.07;4.80;;;5.70;99.90;;;;;;5049010;28;20839;-58
2023/03/08 06:36:51;;;;;;;16.43;5.97;;;5.80;99.90;;;;;;5048921;28;20381;-59
2023/03/08 06:39:16;;;;;;;13.27;5.50;;;7.40;99.90;;;;;;5048241;28;20980;-59
2023/03/08 06:41:42;;;;;;;14.40;5.90;;;5.90;99.90;;;;;;5051197;28;20539;-59
2023/03/08 06:44:08;;;;;;;14.10;5.75;;;6.70;99.90;;;;;;5057477;28;20717;-58
2023/03/08 06:46:33;;;;;;;15.27;5.50;;;5.90;99.90;;;;;;5089109;28;20863;-58
2023/03/08 06:48:59;;;;;;;18.33;6.55;;;5.70;99.90;;;;;;5077247;28;20408;-59
2023/03/08 06:51:25;;;;;;;16.93;6.27;;;5.70;99.90;;;;;;5062046;28;20392;-59
2023/03/08 06:53:50;;;;;;;15.50;6.57;;;5.80;99.90;;;;;;5077447;28;20510;-59
2023/03/08 06:56:17;;;;;;;15.37;6.73;;;5.80;99.90;;;;;;5085528;28;20485;-59
2023/03/08 06:58:43;;;;;;;16.80;6.55;;;6.90;99.90;;;;;;5092340;28;20398;-58
2023/03/08 07:01:09;;;;;;;16.13;6.80;;;5.80;99.90;;;;;;5091356;28;20389;-58
2023/03/08 07:03:35;;;;;;;17.05;6.93;;;5.60;99.90;;;;;;5085143;28;20395;-58
2023/03/08 07:06:04;;;;;;;14.93;5.68;;;5.70;99.90;;;;;;5068269;28;20411;-58
2023/03/08 07:08:30;;;;;;;12.85;5.38;;;5.70;99.90;;;;;;5086082;28;20903;-58
2023/03/08 07:10:57;;;;;;;16.25;6.28;;;5.70;99.90;;;;;;5076082;28;20442;-58
2023/03/08 07:13:22;;;;;;;15.23;5.82;;;5.70;99.90;;;;;;5090279;28;20370;-58
2023/03/08 07:15:49;;;;;;;15.05;6.15;;;5.50;99.90;;;;;;5083193;28;20393;-58
2023/03/08 07:18:15;;;;;;;15.37;5.97;;;5.60;99.90;;;;;;5090566;28;20526;-58
2023/03/08 07:20:40;;;;;;;18.08;6.00;;;6.00;99.90;;;;;;5071764;28;20854;-59
2023/03/08 07:23:06;;;;;;;20.45;6.57;;;5.70;99.90;;;;;;5071169;28;20740;-58
2023/03/08 07:25:32;;;;;;;19.63;6.43;;;6.80;99.90;;;;;;5076706;28;20406;-58
2023/03/08 07:27:58;;;;;;;13.15;4.90;;;5.80;99.90;;;;;;5090104;28;20805;-58
2023/03/08 07:30:24;;;;;;;15.15;5.60;;;5.80;99.90;;;;;;5091665;28;20867;-59
2023/03/08 07:32:52;;;;;;;13.97;5.23;;;7.00;99.90;;;;;;5091268;28;20424;-59
2023/03/08 07:35:18;;;;;;;15.00;5.63;;;5.80;99.90;;;;;;5090314;28;21042;-58
2023/03/08 07:37:45;;;;;;;13.48;5.13;;;7.20;99.90;;;;;;5091714;28;20399;-58
2023/03/08 07:40:12;;;;;;;11.07;4.38;;;7.10;99.90;;;;;;5085674;28;20398;-58
2023/03/08 07:42:38;;;;;;;20.77;6.50;;;5.50;99.90;;;;;;5091661;28;20386;-58
2023/03/08 07:45:04;;;;;;;12.60;5.03;;;7.10;99.90;;;;;;5089415;28;20399;-59
2023/03/08 07:47:31;;;;;;;15.13;5.78;;;5.60;99.90;;;;;;5091066;28;20796;-58
2023/03/08 07:49:57;;;;;;;13.07;5.38;;;5.60;99.90;;;;;;5076353;28;20395;-58
2023/03/08 07:52:29;;;;;;;13.90;4.70;;;6.50;99.90;;;;;;5084899;28;20390;-59
2023/03/08 07:54:55;;;;;;;13.20;5.32;;;5.70;99.90;;;;;;5081734;28;20446;-58
2023/03/08 07:57:22;;;;;;;15.60;5.82;;;5.50;99.90;;;;;;5091017;28;20426;-58
2023/03/08 07:59:49;;;;;;;14.77;5.00;;;5.60;99.90;;;;;;5091554;28;20421;-58
2023/03/08 08:02:14;;;;;;;9.55;3.65;;;5.70;99.90;;;;;;5081091;28;20394;-59
2023/03/08 08:04:40;;;;;;;11.85;4.50;;;5.70;99.90;;;;;;5091070;28;20382;-59
2023/03/08 08:07:10;;;;;;;11.13;4.83;;;5.70;99.90;;;;;;5089827;28;20389;-58
2023/03/08 08:09:36;;;;;;;11.52;4.55;;;7.20;99.90;;;;;;5090838;28;20459;-58
2023/03/08 08:12:03;;;;;;;13.43;5.70;;;5.60;99.90;;;;;;5090325;28;20386;-58
2023/03/08 08:14:29;;;;;;;16.05;5.88;;;5.80;99.90;;;;;;5078405;28;20497;-58
2023/03/08 08:16:55;;;;;;;12.48;4.95;;;6.00;99.90;;;;;;5080603;28;21118;-59
2023/03/08 08:19:21;;;;;;;14.13;5.13;;;7.80;99.90;;;;;;5080205;28;21232;-58
2023/03/08 08:21:46;;;;;;;15.53;5.60;;;6.30;99.90;;;;;;5088466;28;20397;-58
2023/03/08 08:24:12;;;;;;;15.38;5.55;;;6.40;99.90;;;;;;5090059;28;20390;-58
2023/03/08 08:26:38;;;;;;;12.57;5.80;;;6.40;99.90;;;;;;5090127;28;20485;-58
2023/03/08 08:29:04;;;;;;;16.00;6.10;;;6.40;99.90;;;;;;5089549;28;20437;-58
2023/03/08 08:31:30;;;;;;;14.63;5.70;;;6.40;99.90;;;;;;5091073;28;20374;-58
2023/03/08 08:33:56;;;;;;;19.40;7.07;;;6.40;99.90;;;;;;5090308;28;20412;-58
2023/03/08 08:36:22;;;;;;;17.13;6.88;;;6.40;99.90;;;;;;5089685;28;20397;-58
2023/03/08 08:38:49;;;;;;;16.95;7.20;;;6.40;99.90;;;;;;5088718;28;20394;-58
2023/03/08 08:41:17;;;;;;;17.85;8.00;;;6.40;99.90;;;;;;5088803;28;20402;-59
2023/03/08 08:43:44;;;;;;;22.08;8.55;;;7.10;99.90;;;;;;5090331;28;20390;-59
2023/03/08 08:46:10;;;;;;;18.25;7.60;;;6.10;99.90;;;;;;5089700;28;20398;-59
2023/03/08 08:48:37;;;;;;;22.80;8.55;;;6.10;99.90;;;;;;5086415;28;20970;-59
2023/03/08 08:51:03;;;;;;;18.73;8.40;;;6.00;99.90;;;;;;5088090;28;20469;-59
2023/03/08 08:53:29;;;;;;;19.10;7.40;;;5.90;99.90;;;;;;5090206;28;20397;-58
2023/03/08 08:55:55;;;;;;;17.80;6.80;;;6.20;99.90;;;;;;5088667;28;20402;-59
2023/03/08 08:58:21;;;;;;;15.52;5.97;;;6.10;99.90;;;;;;5088905;28;20512;-58
2023/03/08 09:00:47;;;;;;;15.95;6.35;;;6.10;99.90;;;;;;5086566;28;20417;-59
2023/03/08 09:03:12;;;;;;;16.33;6.77;;;6.20;99.90;;;;;;5089284;28;20431;-58
2023/03/08 09:05:40;;;;;;;17.50;7.78;;;7.70;99.90;;;;;;5089648;28;20397;-58
2023/03/08 09:08:06;;;;;;;21.70;8.33;;;6.70;99.90;;;;;;5088738;28;20444;-59
2023/03/08 09:10:36;;;;;;;16.60;7.50;;;6.30;99.90;;;;;;5090049;28;20844;-59
2023/03/08 09:13:02;;;;;;;22.17;7.22;;;6.30;99.90;;;;;;5088535;28;20405;-59
2023/03/08 09:15:27;;;;;;;18.48;7.30;;;6.40;99.90;;;;;;5077255;28;20935;-59
2023/03/08 09:17:53;;;;;;;16.83;6.60;;;6.80;99.90;;;;;;5090123;28;20485;-59
2023/03/08 09:20:19;;;;;;;20.73;7.93;;;7.60;99.90;;;;;;5086286;28;20535;-58
2023/03/08 09:22:45;;;;;;;20.35;7.57;;;6.70;99.90;;;;;;5089773;28;20417;-58
2023/03/08 09:25:11;;;;;;;12.68;5.50;;;8.20;99.90;;;;;;5088638;28;20406;-59
2023/03/08 09:27:38;;;;;;;16.90;6.90;;;7.50;99.90;;;;;;5089536;28;20386;-58
2023/03/08 09:30:14;;;;;;;21.02;7.70;;;6.90;99.90;;;;;;5088606;28;20478;-58
2023/03/08 09:32:40;;;;;;;16.90;7.00;;;6.50;99.90;;;;;;5087393;28;20754;-58
2023/03/08 09:35:06;;;;;;;17.30;7.15;;;6.50;99.90;;;;;;5088747;28;20398;-59
2023/03/08 09:37:32;;;;;;;19.50;7.03;;;6.40;99.90;;;;;;5089168;28;20473;-59
2023/03/08 09:39:58;;;;;;;17.00;7.70;;;7.50;99.90;;;;;;5089591;28;20481;-59
2023/03/08 09:42:26;;;;;;;17.65;6.78;;;6.40;99.90;;;;;;5088753;28;20397;-58
2023/03/08 09:45:22;;;;;;;20.05;7.50;;;7.00;99.90;;;;;;5089595;28;20401;-59
2023/03/08 09:48:06;;;;;;;18.10;6.97;;;6.50;99.90;;;;;;5089439;28;20890;-59
2023/03/08 09:50:35;;;;;;;18.52;7.50;;;6.60;99.90;;;;;;5069966;28;20383;-58
2023/03/08 09:53:29;;;;;;;18.00;7.35;;;6.70;99.90;;;;;;5085000;28;20463;-58
2023/03/08 09:56:19;;;;;;;18.33;6.55;;;6.70;99.90;;;;;;5068867;28;20414;-58
2023/03/08 09:59:03;;;;;;;17.15;7.20;;;6.80;99.90;;;;;;5089169;28;20396;-58
2023/03/08 10:01:41;;;;;;;17.73;6.32;;;6.80;99.90;;;;;;5089488;28;20863;-58
2023/03/08 10:04:34;;;;;;;17.20;7.27;;;6.80;99.90;;;;;;5082604;28;20779;-58
2023/03/08 10:07:29;;;;;;;15.23;6.50;;;7.00;99.90;;;;;;5084333;28;20401;-58
2023/03/08 10:10:06;;;;;;;17.63;7.05;;;7.10;99.90;;;;;;5086495;28;20891;-58
2023/03/08 10:12:55;;;;;;;18.07;7.33;;;7.30;99.90;;;;;;5069315;28;20883;-58
2023/03/08 10:15:23;;;;;;;15.43;6.53;;;7.30;99.90;;;;;;5085113;28;20839;-58
2023/03/08 10:17:55;;;;;;;16.25;7.18;;;7.30;99.90;;;;;;5089070;28;20397;-59
2023/03/08 10:20:23;;;;;;;17.63;7.38;;;7.40;99.90;;;;;;5083208;28;20392;-59
2023/03/08 10:23:09;;;;;;;16.35;7.53;;;7.50;99.90;;;;;;5089094;28;20413;-59
2023/03/08 10:25:35;;;;;;;14.10;6.20;;;7.90;99.90;;;;;;5089442;28;20397;-60
2023/03/08 10:28:07;;;;;;;16.00;6.00;;;7.60;99.90;;;;;;5092516;28;20410;-60
2023/03/08 10:30:45;;;;;;;12.52;4.32;;;7.60;99.90;;;;;;5093103;28;20413;-58
2023/03/08 10:33:13;;;;;;;13.05;4.07;;;7.80;1.00;;;;;;5091457;28;20386;-58
2023/03/08 10:36:01;;;;;;;10.82;3.92;;;7.90;1.00;;;;;;5092574;28;20405;-60
2023/03/08 10:38:29;;;;;;;14.05;4.60;;;8.00;45.30;;;;;;5090481;28;20417;-58
2023/03/08 10:41:15;;;;;;;9.15;3.80;;;8.10;99.90;;;;;;5092230;28;21009;-58
2023/03/08 10:43:47;;;;;;;9.70;4.07;;;8.40;99.90;;;;;;5092638;28;20473;-58
2023/03/08 10:46:22;;;;;;;10.38;3.80;;;8.60;1.00;;;;;;5091524;28;20879;-58
2023/03/08 10:48:48;;;;;;;11.63;4.22;;;8.50;99.90;;;;;;5088305;28;20410;-58
2023/03/08 10:51:28;;;;;;;13.23;5.50;;;8.50;99.90;;;;;;5091791;28;20390;-58
2023/03/08 10:54:01;;;;;;;10.23;3.22;;;8.80;1.00;;;;;;5092259;28;20456;-58
2023/03/08 10:56:45;;;;;;;6.70;2.10;;;8.60;1.00;;;;;;5091655;28;20895;-58
2023/03/08 10:59:21;;;;;;;9.80;3.50;;;8.60;1.00;;;;;;5091550;28;20409;-58
2023/03/08 11:01:50;;;;;;;7.53;2.17;;;8.70;18.90;;;;;;5092204;28;20390;-59
2023/03/08 11:04:21;;;;;;;8.00;2.50;;;8.80;99.90;;;;;;5091082;28;20827;-58
2023/03/08 11:06:47;;;;;;;7.40;2.20;;;8.90;99.90;;;;;;5091925;28;20412;-58
2023/03/08 11:09:29;;;;;;;5.43;1.20;;;9.20;99.90;;;;;;5091053;28;20432;-58
2023/03/08 11:11:56;;;;;;;7.03;1.77;;;9.20;91.60;;;;;;5091920;28;20417;-58
2023/03/08 11:14:23;;;;;;;6.43;1.70;;;9.60;26.30;;;;;;5079379;28;20471;-58
2023/03/08 11:17:04;;;;;;;5.22;1.20;;;9.90;1.00;;;;;;5083760;28;20479;-58
2023/03/08 11:19:48;;;;;;;5.00;1.15;;;10.20;99.90;;;;;;5082346;28;20407;-58
2023/03/08 11:22:13;;;;;;;5.82;1.10;;;10.60;99.90;;;;;;5090820;28;20755;-58
2023/03/08 11:25:09;;;;;;;5.37;1.30;;;10.70;1.00;;;;;;5091452;28;20402;-59
2023/03/08 11:27:56;;;;;;;4.88;0.90;;;10.90;1.00;;;;;;5091617;28;20405;-58
2023/03/08 11:30:37;;;;;;;4.90;1.10;;;10.60;1.00;;;;;;5075451;28;20420;-58
2023/03/08 11:33:18;;;;;;;5.10;1.00;;;10.50;1.00;;;;;;5090996;28;20402;-58
2023/03/08 11:36:09;;;;;;;5.55;0.80;;;10.70;1.00;;;;;;5072942;28;20382;-59
2023/03/08 11:38:35;;;;;;;4.50;0.70;;;10.80;1.00;;;;;;5070647;28;20884;-59
2023/03/08 11:41:32;;;;;;;5.20;1.10;;;10.60;1.00;;;;;;5071128;28;20388;-58
2023/03/08 11:44:18;;;;;;;4.70;0.73;;;10.80;1.00;;;;;;5090842;28;20398;-58
2023/03/08 11:47:21;;;;;;;4.60;0.60;;;10.80;1.00;;;;;;5089801;28;20398;-58
2023/03/08 11:50:06;;;;;;;4.40;0.60;;;10.90;1.00;;;;;;5088370;28;20412;-58
2023/03/08 11:52:58;;;;;;;5.07;0.65;;;10.90;1.00;;;;;;5089685;28;20406;-59
2023/03/08 11:55:44;;;;;;;4.82;0.50;;;10.90;1.00;;;;;;5090598;28;20402;-59
2023/03/08 11:58:21;;;;;;;4.73;0.77;;;10.80;1.00;;;;;;5089985;28;20405;-58
2023/03/08 12:00:48;;;;;;;4.80;0.90;;;11.00;1.00;;;;;;5053031;28;20758;-59
2023/03/08 12:03:21;;;;;;;4.45;0.60;;;11.00;1.00;;;;;;5074408;28;20386;-58
2023/03/08 12:05:52;;;;;;;4.88;0.70;;;11.10;1.00;;;;;;5091192;28;20855;-59
2023/03/08 12:08:23;;;;;;;4.60;0.70;;;11.20;1.00;;;;;;5084406;28;20763;-59
2023/03/08 12:11:09;;;;;;;6.38;0.60;;;11.20;1.00;;;;;;5089564;28;20437;-59
2023/03/08 12:13:38;;;;;;;4.80;0.80;;;11.40;1.00;;;;;;5084805;28;20702;-58
2023/03/08 12:16:27;;;;;;;6.30;1.20;;;11.70;1.00;;;;;;5090118;28;20382;-58
2023/03/08 12:19:17;;;;;;;5.82;0.50;;;12.00;1.00;;;;;;5084817;28;20954;-59
2023/03/08 12:21:54;;;;;;;4.38;0.50;;;12.00;1.00;;;;;;5077836;28;20393;-58
2023/03/08 12:25:00;;;;;;;4.50;0.60;;;11.90;1.00;;;;;;5090032;28;20386;-59
2023/03/08 12:27:34;;;;;;;5.10;0.90;;;12.10;1.00;;;;;;5089174;28;20428;-59
2023/03/08 12:30:21;;;;;;;5.43;0.80;;;12.40;1.00;;;;;;5088331;28;20990;-59
2023/03/08 12:32:48;;;;;;;4.40;0.60;;;12.40;1.00;;;;;;5090166;28;20467;-59
2023/03/08 12:35:32;;;;;;;4.68;0.60;;;12.30;1.00;;;;;;5089713;28;20405;-58
2023/03/08 12:38:03;;;;;;;5.13;1.00;;;12.30;1.00;;;;;;5090054;28;20386;-58
2023/03/08 12:40:39;;;;;;;4.70;0.70;;;12.20;1.00;;;;;;5087530;28;20390;-58
2023/03/08 12:43:12;;;;;;;5.05;0.68;;;12.30;1.00;;;;;;5089891;28;20653;-58
2023/03/08 12:45:40;;;;;;;4.50;0.60;;;12.10;1.00;;;;;;5089764;28;20405;-59
2023/03/08 12:48:05;;;;;;;5.25;0.70;;;12.00;1.00;;;;;;5069289;28;20399;-59
2023/03/08 12:50:43;;;;;;;5.43;0.63;;;13.20;1.00;;;;;;5066991;28;20904;-58
2023/03/08 12:53:44;;;;;;;4.30;0.50;;;12.40;1.00;;;;;;5068873;28;20384;-59
2023/03/08 12:56:09;;;;;;;5.30;0.70;;;12.60;1.00;;;;;;5064212;28;20414;-59
2023/03/08 12:58:49;;;;;;;7.80;0.80;;;12.60;1.00;;;;;;5062574;28;20410;-59